createdAt,value
2018-05-15T00:00:45.056Z,1020.9
2018-05-15T00:01:47.387Z,1020.9
2018-05-15T00:02:49.105Z,1020.9
2018-05-15T00:03:50.879Z,1020.9
2018-05-15T00:04:52.669Z,1020.9
2018-05-15T00:05:54.474Z,1021.0
2018-05-15T00:06:56.233Z,1021.0
2018-05-15T00:07:58.011Z,1021.0
2018-05-15T00:08:59.773Z,1021.0
2018-05-15T00:10:01.554Z,1021.0
2018-05-15T00:11:03.331Z,1021.0
2018-05-15T00:12:05.146Z,1020.9
2018-05-15T00:13:06.910Z,1020.9
2018-05-15T00:14:08.672Z,1020.9
2018-05-15T00:15:10.427Z,1020.9
2018-05-15T00:16:12.208Z,1021.0
2018-05-15T00:17:13.972Z,1021.0
2018-05-15T00:18:15.729Z,1020.9
2018-05-15T00:19:17.482Z,1020.9
2018-05-15T00:20:19.250Z,1021.0
2018-05-15T00:21:21.011Z,1021.0
2018-05-15T00:22:22.769Z,1020.9
2018-05-15T00:23:24.556Z,1020.9
2018-05-15T00:24:26.321Z,1021.0
2018-05-15T00:25:28.076Z,1020.9
2018-05-15T00:26:29.834Z,1021.0
2018-05-15T00:27:31.618Z,1020.9
2018-05-15T00:28:33.393Z,1020.9
2018-05-15T00:29:35.158Z,1020.9
2018-05-15T00:30:36.916Z,1020.9
2018-05-15T00:31:38.682Z,1020.9
2018-05-15T00:32:40.535Z,1020.9
2018-05-15T00:33:42.321Z,1020.9
2018-05-15T00:34:44.107Z,1020.9
2018-05-15T00:35:45.876Z,1020.9
2018-05-15T00:36:47.665Z,1020.9
2018-05-15T00:37:49.420Z,1020.8
2018-05-15T00:38:51.193Z,1020.9
2018-05-15T00:39:52.975Z,1020.9
2018-05-15T00:40:54.751Z,1020.9
2018-05-15T00:41:56.533Z,1020.9
2018-05-15T00:42:58.295Z,1020.8
2018-05-15T00:44:00.102Z,1020.9
2018-05-15T00:45:01.860Z,1020.9
2018-05-15T00:46:03.625Z,1020.9
2018-05-15T00:47:05.415Z,1020.9
2018-05-15T00:48:07.185Z,1020.9
2018-05-15T00:49:08.957Z,1020.9
2018-05-15T00:50:10.738Z,1020.8
2018-05-15T00:51:12.511Z,1020.9
2018-05-15T00:52:14.298Z,1020.8
2018-05-15T00:53:16.092Z,1020.8
2018-05-15T00:54:17.872Z,1020.8
2018-05-15T00:55:19.659Z,1020.8
2018-05-15T00:56:21.471Z,1020.8
2018-05-15T00:57:23.289Z,1020.8
2018-05-15T00:58:25.052Z,1020.8
2018-05-15T00:59:26.823Z,1020.8
2018-05-15T01:00:28.597Z,1020.8
2018-05-15T01:01:30.356Z,1020.7
2018-05-15T01:02:32.108Z,1020.8
2018-05-15T01:03:33.860Z,1020.7
2018-05-15T01:04:35.640Z,1020.8
2018-05-15T01:05:37.419Z,1020.8
2018-05-15T01:06:39.188Z,1020.7
2018-05-15T01:07:40.966Z,1020.7
2018-05-15T01:08:42.751Z,1020.7
2018-05-15T01:09:44.500Z,1020.7
2018-05-15T01:10:46.283Z,1020.7
2018-05-15T01:11:48.066Z,1020.7
2018-05-15T01:12:49.834Z,1020.7
2018-05-15T01:13:51.606Z,1020.7
2018-05-15T01:14:53.433Z,1020.7
2018-05-15T01:15:55.228Z,1020.7
2018-05-15T01:16:56.992Z,1020.7
2018-05-15T01:17:58.759Z,1020.7
2018-05-15T01:19:00.555Z,1020.7
2018-05-15T01:20:02.303Z,1020.6
2018-05-15T01:21:04.095Z,1020.6
2018-05-15T01:22:05.843Z,1020.7
2018-05-15T01:23:07.597Z,1020.6
2018-05-15T01:24:09.498Z,1020.6
2018-05-15T01:25:11.275Z,1020.6
2018-05-15T01:26:13.040Z,1020.6
2018-05-15T01:27:14.792Z,1020.6
2018-05-15T01:28:16.552Z,1020.6
2018-05-15T01:29:18.337Z,1020.6
2018-05-15T01:30:20.112Z,1020.6
2018-05-15T01:31:21.870Z,1020.6
2018-05-15T01:32:23.647Z,1020.5
2018-05-15T01:33:25.403Z,1020.5
2018-05-15T01:34:27.184Z,1020.5
2018-05-15T01:35:28.945Z,1020.5
2018-05-15T01:36:30.717Z,1020.5
2018-05-15T01:37:32.498Z,1020.5
2018-05-15T01:38:34.274Z,1020.6
2018-05-15T01:39:36.070Z,1020.6
2018-05-15T01:40:37.828Z,1020.6
2018-05-15T01:41:39.613Z,1020.5
2018-05-15T01:42:41.385Z,1020.6
2018-05-15T01:43:43.175Z,1020.6
2018-05-15T01:44:44.941Z,1020.5
2018-05-15T01:45:46.714Z,1020.5
2018-05-15T01:46:48.517Z,1020.6
2018-05-15T01:47:50.308Z,1020.5
2018-05-15T01:48:52.090Z,1020.6
2018-05-15T01:49:53.981Z,1020.6
2018-05-15T01:50:55.757Z,1020.6
2018-05-15T01:51:57.544Z,1020.6
2018-05-15T01:52:59.290Z,1020.6
2018-05-15T01:54:01.048Z,1020.6
2018-05-15T01:55:02.821Z,1020.6
2018-05-15T01:56:04.605Z,1020.6
2018-05-15T01:57:06.372Z,1020.6
2018-05-15T01:58:08.979Z,1020.6
2018-05-15T01:59:10.729Z,1020.5
2018-05-15T02:00:12.505Z,1020.6
2018-05-15T02:01:14.275Z,1020.6
2018-05-15T02:02:16.039Z,1020.5
2018-05-15T02:03:17.812Z,1020.6
2018-05-15T02:04:19.584Z,1020.6
2018-05-15T02:05:21.351Z,1020.6
2018-05-15T02:06:23.126Z,1020.6
2018-05-15T02:07:24.880Z,1020.6
2018-05-15T02:08:26.678Z,1020.6
2018-05-15T02:09:28.426Z,1020.6
2018-05-15T02:10:30.223Z,1020.6
2018-05-15T02:11:31.989Z,1020.6
2018-05-15T02:12:33.767Z,1020.6
2018-05-15T02:13:35.530Z,1020.6
2018-05-15T02:14:37.313Z,1020.6
2018-05-15T02:15:39.093Z,1020.6
2018-05-15T02:16:40.866Z,1020.6
2018-05-15T02:17:42.621Z,1020.6
2018-05-15T02:18:44.393Z,1020.6
2018-05-15T02:19:46.198Z,1020.5
2018-05-15T02:20:47.958Z,1020.5
2018-05-15T02:21:49.849Z,1020.6
2018-05-15T02:22:51.620Z,1020.5
2018-05-15T02:23:53.395Z,1020.5
2018-05-15T02:24:55.177Z,1020.6
2018-05-15T02:25:56.930Z,1020.6
2018-05-15T02:26:58.718Z,1020.5
2018-05-15T02:28:00.492Z,1020.6
2018-05-15T02:29:02.274Z,1020.6
2018-05-15T02:30:04.076Z,1020.6
2018-05-15T02:31:05.906Z,1020.6
2018-05-15T02:32:07.661Z,1020.6
2018-05-15T02:33:09.411Z,1020.6
2018-05-15T02:34:11.193Z,1020.6
2018-05-15T02:35:12.950Z,1020.6
2018-05-15T02:36:14.764Z,1020.6
2018-05-15T02:37:16.539Z,1020.6
2018-05-15T02:38:18.316Z,1020.6
2018-05-15T02:39:20.080Z,1020.5
2018-05-15T02:40:21.844Z,1020.6
2018-05-15T02:41:23.608Z,1020.5
2018-05-15T02:42:25.367Z,1020.5
2018-05-15T02:43:27.117Z,1020.6
2018-05-15T02:44:28.877Z,1020.6
2018-05-15T02:45:30.637Z,1020.6
2018-05-15T02:46:32.378Z,1020.6
2018-05-15T02:47:35.973Z,1020.6
2018-05-15T02:48:37.724Z,1020.6
2018-05-15T02:49:39.486Z,1020.6
2018-05-15T02:50:41.243Z,1020.6
2018-05-15T02:51:42.983Z,1020.6
2018-05-15T02:52:44.770Z,1020.6
2018-05-15T02:53:46.531Z,1020.6
2018-05-15T02:54:48.332Z,1020.6
2018-05-15T02:55:50.095Z,1020.6
2018-05-15T02:56:51.838Z,1020.7
2018-05-15T02:57:53.598Z,1020.7
2018-05-15T02:58:55.355Z,1020.7
2018-05-15T02:59:57.107Z,1020.7
2018-05-15T03:00:58.866Z,1020.7
2018-05-15T03:02:00.646Z,1020.6
2018-05-15T03:03:02.419Z,1020.6
2018-05-15T03:04:04.181Z,1020.7
2018-05-15T03:05:05.935Z,1020.6
2018-05-15T03:06:07.692Z,1020.6
2018-05-15T03:07:09.442Z,1020.6
2018-05-15T03:08:11.193Z,1020.6
2018-05-15T03:09:12.943Z,1020.6
2018-05-15T03:10:14.721Z,1020.6
2018-05-15T03:11:16.471Z,1020.6
2018-05-15T03:12:18.225Z,1020.7
2018-05-15T03:13:19.990Z,1020.6
2018-05-15T03:14:21.781Z,1020.6
2018-05-15T03:15:23.554Z,1020.6
2018-05-15T03:16:25.332Z,1020.6
2018-05-15T03:17:27.084Z,1020.6
2018-05-15T03:18:29.483Z,1020.6
2018-05-15T03:19:31.232Z,1020.6
2018-05-15T03:20:32.969Z,1020.6
2018-05-15T03:21:34.736Z,1020.6
2018-05-15T03:22:36.508Z,1020.6
2018-05-15T03:23:38.262Z,1020.6
2018-05-15T03:24:40.031Z,1020.5
2018-05-15T03:25:41.792Z,1020.6
2018-05-15T03:26:43.559Z,1020.5
2018-05-15T03:27:45.322Z,1020.5
2018-05-15T03:28:47.066Z,1020.6
2018-05-15T03:29:48.811Z,1020.5
2018-05-15T03:30:50.570Z,1020.6
2018-05-15T03:31:52.339Z,1020.6
2018-05-15T03:32:54.096Z,1020.5
2018-05-15T03:33:55.852Z,1020.5
2018-05-15T03:34:57.589Z,1020.5
2018-05-15T03:35:59.338Z,1020.5
2018-05-15T03:37:01.081Z,1020.5
2018-05-15T03:38:02.823Z,1020.6
2018-05-15T03:39:04.601Z,1020.6
2018-05-15T03:40:06.359Z,1020.6
2018-05-15T03:41:08.099Z,1020.6
2018-05-15T03:42:09.844Z,1020.6
2018-05-15T03:43:11.586Z,1020.5
2018-05-15T03:44:13.343Z,1020.6
2018-05-15T03:45:15.112Z,1020.6
2018-05-15T03:46:16.863Z,1020.6
2018-05-15T03:47:18.611Z,1020.6
2018-05-15T03:48:20.368Z,1020.6
2018-05-15T03:49:22.125Z,1020.6
2018-05-15T03:50:23.868Z,1020.6
2018-05-15T03:51:25.613Z,1020.6
2018-05-15T03:52:27.357Z,1020.6
2018-05-15T03:53:29.117Z,1020.6
2018-05-15T03:54:30.870Z,1020.6
2018-05-15T03:55:32.623Z,1020.6
2018-05-15T03:56:34.423Z,1020.6
2018-05-15T03:57:36.187Z,1020.6
2018-05-15T03:58:37.933Z,1020.6
2018-05-15T03:59:39.684Z,1020.6
2018-05-15T04:00:41.449Z,1020.6
2018-05-15T04:01:43.198Z,1020.6
2018-05-15T04:02:44.938Z,1020.6
2018-05-15T04:03:46.690Z,1020.6
2018-05-15T04:04:48.434Z,1020.6
2018-05-15T04:05:50.187Z,1020.5
2018-05-15T04:06:51.928Z,1020.6
2018-05-15T04:07:53.678Z,1020.5
2018-05-15T04:08:55.447Z,1020.5
2018-05-15T04:09:57.205Z,1020.6
2018-05-15T04:10:59.036Z,1020.6
2018-05-15T04:12:00.716Z,1020.6
2018-05-15T04:13:02.464Z,1020.5
2018-05-15T04:14:04.226Z,1020.6
2018-05-15T04:15:06.026Z,1020.6
2018-05-15T04:16:07.757Z,1020.6
2018-05-15T04:17:09.509Z,1020.7
2018-05-15T04:18:11.258Z,1020.7
2018-05-15T04:19:13.010Z,1020.7
2018-05-15T04:20:14.756Z,1020.7
2018-05-15T04:21:16.491Z,1020.7
2018-05-15T04:22:18.238Z,1020.7
2018-05-15T04:23:19.999Z,1020.7
2018-05-15T04:24:21.748Z,1020.7
2018-05-15T04:25:24.008Z,1020.6
2018-05-15T04:26:25.758Z,1020.7
2018-05-15T04:27:27.506Z,1020.7
2018-05-15T04:28:29.285Z,1020.7
2018-05-15T04:29:31.017Z,1020.7
2018-05-15T04:30:32.767Z,1020.7
2018-05-15T04:31:34.536Z,1020.7
2018-05-15T04:32:36.275Z,1020.7
2018-05-15T04:33:38.015Z,1020.7
2018-05-15T04:34:39.754Z,1020.6
2018-05-15T04:35:41.507Z,1020.7
2018-05-15T04:36:43.255Z,1020.7
2018-05-15T04:37:45.001Z,1020.7
2018-05-15T04:38:46.752Z,1020.7
2018-05-15T04:39:48.502Z,1020.7
2018-05-15T04:40:50.282Z,1020.7
2018-05-15T04:41:52.045Z,1020.8
2018-05-15T04:42:53.790Z,1020.8
2018-05-15T04:43:55.563Z,1020.8
2018-05-15T04:44:57.294Z,1020.8
2018-05-15T04:45:59.048Z,1020.8
2018-05-15T04:47:00.801Z,1020.7
2018-05-15T04:48:02.563Z,1020.7
2018-05-15T04:49:04.324Z,1020.7
2018-05-15T04:50:06.078Z,1020.7
2018-05-15T04:51:07.828Z,1020.7
2018-05-15T04:52:09.597Z,1020.7
2018-05-15T04:53:11.363Z,1020.7
2018-05-15T04:54:13.129Z,1020.7
2018-05-15T04:55:14.881Z,1020.7
2018-05-15T04:56:16.646Z,1020.7
2018-05-15T04:57:18.410Z,1020.6
2018-05-15T04:58:20.184Z,1020.7
2018-05-15T04:59:21.946Z,1020.7
2018-05-15T05:00:23.688Z,1020.7
2018-05-15T05:01:25.460Z,1020.7
2018-05-15T05:02:28.080Z,1020.7
2018-05-15T05:03:29.843Z,1020.6
2018-05-15T05:04:31.629Z,1020.7
2018-05-15T05:05:33.372Z,1020.7
2018-05-15T05:06:35.137Z,1020.7
2018-05-15T05:07:36.892Z,1020.6
2018-05-15T05:08:38.658Z,1020.7
2018-05-15T05:09:40.411Z,1020.6
2018-05-15T05:10:42.168Z,1020.6
2018-05-15T05:11:44.031Z,1020.6
2018-05-15T05:12:45.729Z,1020.7
2018-05-15T05:13:47.484Z,1020.6
2018-05-15T05:14:49.251Z,1020.7
2018-05-15T05:15:51.036Z,1020.6
2018-05-15T05:16:52.782Z,1020.7
2018-05-15T05:17:54.592Z,1020.7
2018-05-15T05:18:56.362Z,1020.6
2018-05-15T05:19:58.121Z,1020.7
2018-05-15T05:20:59.933Z,1020.6
2018-05-15T05:22:01.663Z,1020.7
2018-05-15T05:23:03.431Z,1020.7
2018-05-15T05:24:05.195Z,1020.7
2018-05-15T05:25:06.964Z,1020.7
2018-05-15T05:26:08.711Z,1020.7
2018-05-15T05:27:10.536Z,1020.7
2018-05-15T05:28:12.269Z,1020.7
2018-05-15T05:29:14.029Z,1020.7
2018-05-15T05:30:15.871Z,1020.7
2018-05-15T05:31:17.540Z,1020.7
2018-05-15T05:32:19.311Z,1020.7
2018-05-15T05:33:21.148Z,1020.7
2018-05-15T05:34:22.835Z,1020.7
2018-05-15T05:35:24.585Z,1020.7
2018-05-15T05:36:26.351Z,1020.8
2018-05-15T05:37:28.125Z,1020.7
2018-05-15T05:38:29.898Z,1020.7
2018-05-15T05:39:31.646Z,1020.7
2018-05-15T05:40:33.411Z,1020.7
2018-05-15T05:41:35.183Z,1020.8
2018-05-15T05:42:36.956Z,1020.8
2018-05-15T05:43:38.714Z,1020.8
2018-05-15T05:44:40.497Z,1020.8
2018-05-15T05:45:42.268Z,1020.8
2018-05-15T05:46:44.025Z,1020.9
2018-05-15T05:47:45.813Z,1021.0
2018-05-15T05:48:47.569Z,1020.9
2018-05-15T05:49:49.336Z,1020.9
2018-05-15T05:50:51.099Z,1020.9
2018-05-15T05:51:52.892Z,1020.9
2018-05-15T05:52:54.640Z,1020.9
2018-05-15T05:53:56.433Z,1020.9
2018-05-15T05:54:58.200Z,1021.0
2018-05-15T05:55:59.964Z,1021.0
2018-05-15T05:57:01.726Z,1021.0
2018-05-15T05:58:03.482Z,1021.0
2018-05-15T05:59:05.238Z,1021.0
2018-05-15T06:00:06.996Z,1021.0
2018-05-15T06:01:08.781Z,1021.1
2018-05-15T06:02:10.581Z,1021.1
2018-05-15T06:03:12.343Z,1021.1
2018-05-15T06:04:14.154Z,1021.1
2018-05-15T06:05:15.905Z,1021.1
2018-05-15T06:06:17.663Z,1021.1
2018-05-15T06:07:19.491Z,1021.1
2018-05-15T06:08:21.209Z,1021.2
2018-05-15T06:09:22.972Z,1021.1
2018-05-15T06:10:24.760Z,1021.2
2018-05-15T06:11:26.511Z,1021.2
2018-05-15T06:12:28.320Z,1021.1
2018-05-15T06:13:30.079Z,1021.1
2018-05-15T06:14:31.823Z,1021.1
2018-05-15T06:15:33.585Z,1021.1
2018-05-15T06:16:35.347Z,1021.2
2018-05-15T06:17:37.142Z,1021.1
2018-05-15T06:18:38.895Z,1021.2
2018-05-15T06:19:40.663Z,1021.1
2018-05-15T06:20:42.509Z,1021.2
2018-05-15T06:21:44.194Z,1021.2
2018-05-15T06:22:45.941Z,1021.2
2018-05-15T06:23:47.697Z,1021.2
2018-05-15T06:24:49.475Z,1021.2
2018-05-15T06:25:51.235Z,1021.2
2018-05-15T06:26:53.018Z,1021.3
2018-05-15T06:27:54.808Z,1021.2
2018-05-15T06:29:01.788Z,1021.3
2018-05-15T06:30:03.557Z,1021.3
2018-05-15T06:31:05.342Z,1021.3
2018-05-15T06:32:08.033Z,1021.3
2018-05-15T06:33:09.792Z,1021.3
2018-05-15T06:34:11.562Z,1021.2
2018-05-15T06:35:13.323Z,1021.3
2018-05-15T06:36:15.091Z,1021.3
2018-05-15T06:37:16.849Z,1021.3
2018-05-15T06:38:18.623Z,1021.3
2018-05-15T06:39:20.537Z,1021.3
2018-05-15T06:40:22.317Z,1021.3
2018-05-15T06:41:24.087Z,1021.3
2018-05-15T06:42:25.859Z,1021.3
2018-05-15T06:43:27.694Z,1021.3
2018-05-15T06:44:29.452Z,1021.3
2018-05-15T06:45:31.219Z,1021.3
2018-05-15T06:46:32.972Z,1021.3
2018-05-15T06:47:34.762Z,1021.3
2018-05-15T06:48:36.523Z,1021.3
2018-05-15T06:49:38.286Z,1021.3
2018-05-15T06:50:40.061Z,1021.3
2018-05-15T06:51:41.809Z,1021.4
2018-05-15T06:52:43.587Z,1021.4
2018-05-15T06:53:45.357Z,1021.5
2018-05-15T06:54:47.154Z,1021.4
2018-05-15T06:55:48.912Z,1021.5
2018-05-15T06:56:50.678Z,1021.5
2018-05-15T06:57:52.442Z,1021.5
2018-05-15T06:58:54.253Z,1021.5
2018-05-15T06:59:56.005Z,1021.4
2018-05-15T07:00:57.893Z,1021.5
2018-05-15T07:01:59.854Z,1021.5
2018-05-15T07:03:01.644Z,1021.5
2018-05-15T07:04:03.399Z,1021.5
2018-05-15T07:05:05.177Z,1021.5
2018-05-15T07:06:06.916Z,1021.5
2018-05-15T07:07:08.691Z,1021.5
2018-05-15T07:08:10.468Z,1021.5
2018-05-15T07:09:12.245Z,1021.4
2018-05-15T07:10:14.041Z,1021.5
2018-05-15T07:11:15.808Z,1021.4
2018-05-15T07:12:17.582Z,1021.4
2018-05-15T07:13:19.355Z,1021.5
2018-05-15T07:14:21.116Z,1021.5
2018-05-15T07:15:22.883Z,1021.5
2018-05-15T07:16:24.700Z,1021.4
2018-05-15T07:17:26.469Z,1021.5
2018-05-15T07:18:28.229Z,1021.5
2018-05-15T07:19:29.995Z,1021.5
2018-05-15T07:20:31.792Z,1021.5
2018-05-15T07:21:33.546Z,1021.5
2018-05-15T07:22:35.300Z,1021.5
2018-05-15T07:23:37.140Z,1021.5
2018-05-15T07:24:38.937Z,1021.4
2018-05-15T07:25:40.777Z,1021.4
2018-05-15T07:26:42.562Z,1021.4
2018-05-15T07:27:44.359Z,1021.4
2018-05-15T07:28:46.107Z,1021.4
2018-05-15T07:29:47.885Z,1021.4
2018-05-15T07:30:49.656Z,1021.4
2018-05-15T07:31:51.441Z,1021.4
2018-05-15T07:32:53.215Z,1021.4
2018-05-15T07:33:54.975Z,1021.4
2018-05-15T07:34:56.749Z,1021.5
2018-05-15T07:35:58.518Z,1021.4
2018-05-15T07:37:00.288Z,1021.5
2018-05-15T07:38:02.048Z,1021.4
2018-05-15T07:39:03.911Z,1021.5
2018-05-15T07:40:05.708Z,1021.5
2018-05-15T07:41:07.736Z,1021.4
2018-05-15T07:42:09.264Z,1021.4
2018-05-15T07:43:11.128Z,1021.4
2018-05-15T07:44:12.962Z,1021.4
2018-05-15T07:45:14.753Z,1021.5
2018-05-15T07:46:16.519Z,1021.5
2018-05-15T07:47:18.287Z,1021.4
2018-05-15T07:48:20.065Z,1021.4
2018-05-15T07:49:21.826Z,1021.4
2018-05-15T07:50:23.605Z,1021.4
2018-05-15T07:51:25.407Z,1021.4
2018-05-15T07:52:27.206Z,1021.5
2018-05-15T07:53:29.007Z,1021.4
2018-05-15T07:54:30.805Z,1021.4
2018-05-15T07:55:32.608Z,1021.4
2018-05-15T07:56:34.414Z,1021.4
2018-05-15T07:57:36.216Z,1021.4
2018-05-15T07:58:38.019Z,1021.4
2018-05-15T07:59:39.810Z,1021.4
2018-05-15T08:00:41.610Z,1021.4
2018-05-15T08:01:43.443Z,1021.4
2018-05-15T08:02:45.273Z,1021.4
2018-05-15T08:03:47.070Z,1021.4
2018-05-15T08:04:48.936Z,1021.4
2018-05-15T08:05:50.744Z,1021.5
2018-05-15T08:06:52.606Z,1021.4
2018-05-15T08:07:54.395Z,1021.5
2018-05-15T08:08:56.156Z,1021.5
2018-05-15T08:09:57.933Z,1021.5
2018-05-15T08:11:00.779Z,1021.5
2018-05-15T08:12:04.849Z,1021.4
2018-05-15T08:13:06.408Z,1021.5
2018-05-15T08:14:13.593Z,1021.5
2018-05-15T08:15:20.279Z,1021.5
2018-05-15T08:16:21.846Z,1021.5
2018-05-15T08:17:23.621Z,1021.4
2018-05-15T08:18:25.375Z,1021.4
2018-05-15T08:19:30.469Z,1021.4
2018-05-15T08:20:33.383Z,1021.5
2018-05-15T08:21:38.855Z,1021.5
2018-05-15T08:22:44.586Z,1021.5
2018-05-15T08:23:47.558Z,1021.5
2018-05-15T08:24:51.105Z,1021.4
2018-05-15T08:25:52.717Z,1021.4
2018-05-15T08:26:54.501Z,1021.4
2018-05-15T08:27:56.295Z,1021.3
2018-05-15T08:28:58.069Z,1021.4
2018-05-15T08:29:59.821Z,1021.4
2018-05-15T08:31:01.609Z,1021.4
2018-05-15T08:32:03.458Z,1021.3
2018-05-15T08:33:05.256Z,1021.3
2018-05-15T08:34:07.147Z,1021.3
2018-05-15T08:35:08.987Z,1021.4
2018-05-15T08:36:10.753Z,1021.3
2018-05-15T08:37:12.529Z,1021.4
2018-05-15T08:38:14.322Z,1021.4
2018-05-15T08:39:16.086Z,1021.3
2018-05-15T08:40:17.844Z,1021.4
2018-05-15T08:41:19.651Z,1021.3
2018-05-15T08:42:21.431Z,1021.4
2018-05-15T08:43:23.205Z,1021.3
2018-05-15T08:44:24.974Z,1021.3
2018-05-15T08:45:26.812Z,1021.3
2018-05-15T08:46:28.541Z,1021.3
2018-05-15T08:47:30.301Z,1021.3
2018-05-15T08:48:32.067Z,1021.3
2018-05-15T08:49:33.832Z,1021.4
2018-05-15T08:50:35.580Z,1021.3
2018-05-15T08:51:37.368Z,1021.3
2018-05-15T08:52:39.125Z,1021.3
2018-05-15T08:53:40.897Z,1021.3
2018-05-15T08:54:42.659Z,1021.3
2018-05-15T08:55:44.411Z,1021.4
2018-05-15T08:56:46.185Z,1021.3
2018-05-15T08:57:47.967Z,1021.4
2018-05-15T08:58:49.727Z,1021.4
2018-05-15T08:59:51.491Z,1021.4
2018-05-15T09:00:53.264Z,1021.3
2018-05-15T09:01:55.049Z,1021.3
2018-05-15T09:02:56.825Z,1021.3
2018-05-15T09:03:58.608Z,1021.3
2018-05-15T09:05:00.417Z,1021.3
2018-05-15T09:06:02.178Z,1021.3
2018-05-15T09:07:03.981Z,1021.3
2018-05-15T09:08:05.763Z,1021.3
2018-05-15T09:09:07.533Z,1021.3
2018-05-15T09:10:09.295Z,1021.3
2018-05-15T09:11:11.073Z,1021.3
2018-05-15T09:12:12.854Z,1021.3
2018-05-15T09:13:14.686Z,1021.3
2018-05-15T09:14:16.454Z,1021.3
2018-05-15T09:15:18.250Z,1021.3
2018-05-15T09:16:20.013Z,1021.3
2018-05-15T09:17:21.796Z,1021.3
2018-05-15T09:18:23.630Z,1021.2
2018-05-15T09:19:25.368Z,1021.2
2018-05-15T09:20:27.125Z,1021.2
2018-05-15T09:21:28.903Z,1021.3
2018-05-15T09:22:30.677Z,1021.3
2018-05-15T09:23:32.451Z,1021.3
2018-05-15T09:24:34.221Z,1021.3
2018-05-15T09:25:35.986Z,1021.2
2018-05-15T09:26:37.769Z,1021.2
2018-05-15T09:27:39.521Z,1021.2
2018-05-15T09:28:41.297Z,1021.2
2018-05-15T09:29:43.078Z,1021.2
2018-05-15T09:30:44.870Z,1021.2
2018-05-15T09:31:46.643Z,1021.2
2018-05-15T09:32:48.435Z,1021.2
2018-05-15T09:33:50.249Z,1021.2
2018-05-15T09:34:52.037Z,1021.2
2018-05-15T09:35:53.864Z,1021.2
2018-05-15T09:36:55.631Z,1021.2
2018-05-15T09:37:57.388Z,1021.2
2018-05-15T09:38:59.152Z,1021.2
2018-05-15T09:40:00.930Z,1021.1
2018-05-15T09:41:02.697Z,1021.1
2018-05-15T09:42:04.467Z,1021.1
2018-05-15T09:43:06.231Z,1021.1
2018-05-15T09:44:08.005Z,1021.1
2018-05-15T09:45:09.792Z,1021.1
2018-05-15T09:46:11.569Z,1021.1
2018-05-15T09:47:13.335Z,1021.1
2018-05-15T09:48:15.122Z,1021.1
2018-05-15T09:49:16.905Z,1021.1
2018-05-15T09:50:18.672Z,1021.1
2018-05-15T09:51:20.462Z,1021.0
2018-05-15T09:52:22.243Z,1021.0
2018-05-15T09:53:24.029Z,1021.0
2018-05-15T09:54:25.827Z,1021.0
2018-05-15T09:55:27.607Z,1021.0
2018-05-15T09:56:29.386Z,1021.0
2018-05-15T09:57:31.158Z,1021.0
2018-05-15T09:58:33.024Z,1021.0
2018-05-15T09:59:34.807Z,1021.0
2018-05-15T10:00:36.578Z,1021.0
2018-05-15T10:01:38.358Z,1021.0
2018-05-15T10:02:40.130Z,1021.0
2018-05-15T10:03:42.050Z,1021.0
2018-05-15T10:04:43.812Z,1021.0
2018-05-15T10:05:45.594Z,1021.0
2018-05-15T10:06:47.372Z,1021.0
2018-05-15T10:07:49.180Z,1021.0
2018-05-15T10:08:50.927Z,1021.0
2018-05-15T10:09:52.691Z,1021.0
2018-05-15T10:10:54.474Z,1021.0
2018-05-15T10:11:56.231Z,1021.0
2018-05-15T10:12:58.003Z,1021.0
2018-05-15T10:13:59.790Z,1021.0
2018-05-15T10:15:01.552Z,1020.9
2018-05-15T10:16:03.351Z,1020.9
2018-05-15T10:17:05.131Z,1020.9
2018-05-15T10:18:06.912Z,1020.9
2018-05-15T10:19:08.666Z,1020.9
2018-05-15T10:20:10.431Z,1020.9
2018-05-15T10:21:12.193Z,1020.9
2018-05-15T10:22:13.967Z,1020.9
2018-05-15T10:23:15.753Z,1020.9
2018-05-15T10:24:17.524Z,1020.9
2018-05-15T10:25:19.309Z,1020.9
2018-05-15T10:26:21.141Z,1020.9
2018-05-15T10:27:22.852Z,1020.9
2018-05-15T10:28:24.633Z,1020.9
2018-05-15T10:29:26.416Z,1020.9
2018-05-15T10:30:28.201Z,1020.9
2018-05-15T10:31:30.000Z,1020.9
2018-05-15T10:32:31.777Z,1020.9
2018-05-15T10:33:33.545Z,1020.9
2018-05-15T10:34:35.353Z,1020.9
2018-05-15T10:35:37.125Z,1021.0
2018-05-15T10:36:38.880Z,1021.0
2018-05-15T10:37:40.638Z,1021.0
2018-05-15T10:38:42.410Z,1020.9
2018-05-15T10:39:44.242Z,1020.9
2018-05-15T10:40:46.007Z,1020.9
2018-05-15T10:41:47.770Z,1021.0
2018-05-15T10:42:49.539Z,1020.9
2018-05-15T10:43:51.346Z,1020.9
2018-05-15T10:44:53.087Z,1020.9
2018-05-15T10:45:54.852Z,1020.9
2018-05-15T10:46:56.634Z,1021.0
2018-05-15T10:47:58.459Z,1020.9
2018-05-15T10:49:00.222Z,1021.0
2018-05-15T10:50:01.985Z,1021.0
2018-05-15T10:51:03.785Z,1021.0
2018-05-15T10:52:05.556Z,1020.9
2018-05-15T10:53:07.350Z,1020.8
2018-05-15T10:54:09.130Z,1020.9
2018-05-15T10:55:10.891Z,1020.9
2018-05-15T10:56:12.647Z,1020.8
2018-05-15T10:57:14.431Z,1020.9
2018-05-15T10:58:16.217Z,1020.9
2018-05-15T10:59:17.998Z,1020.8
2018-05-15T11:00:19.804Z,1020.8
2018-05-15T11:01:21.576Z,1020.8
2018-05-15T11:02:23.343Z,1020.8
2018-05-15T11:03:25.130Z,1020.8
2018-05-15T11:04:26.918Z,1020.8
2018-05-15T11:05:28.697Z,1020.8
2018-05-15T11:06:30.507Z,1020.8
2018-05-15T11:07:32.263Z,1020.8
2018-05-15T11:08:34.037Z,1020.9
2018-05-15T11:09:35.835Z,1020.9
2018-05-15T11:10:37.607Z,1020.8
2018-05-15T11:11:39.415Z,1020.8
2018-05-15T11:12:41.208Z,1020.9
2018-05-15T11:13:43.008Z,1020.8
2018-05-15T11:14:49.922Z,1020.8
2018-05-15T11:15:56.866Z,1020.8
2018-05-15T11:17:04.094Z,1020.8
2018-05-15T11:18:09.723Z,1020.9
2018-05-15T11:19:15.176Z,1020.8
2018-05-15T11:20:21.405Z,1020.8
2018-05-15T11:21:22.921Z,1020.8
2018-05-15T11:22:26.396Z,1020.8
2018-05-15T11:23:32.154Z,1020.8
2018-05-15T11:24:38.409Z,1020.8
2018-05-15T11:25:44.952Z,1020.7
2018-05-15T11:26:51.752Z,1020.8
2018-05-15T11:27:57.935Z,1020.7
2018-05-15T11:29:04.496Z,1020.6
2018-05-15T11:30:10.102Z,1020.6
2018-05-15T11:31:17.125Z,1020.6
2018-05-15T11:32:21.956Z,1020.6
2018-05-15T11:33:29.177Z,1020.6
2018-05-15T11:34:31.353Z,1020.6
2018-05-15T11:35:32.882Z,1020.5
2018-05-15T11:36:34.627Z,1020.6
2018-05-15T11:37:36.371Z,1020.5
2018-05-15T11:38:38.124Z,1020.5
2018-05-15T11:39:39.903Z,1020.5
2018-05-15T11:40:41.649Z,1020.5
2018-05-15T11:41:43.518Z,1020.4
2018-05-15T11:42:45.199Z,1020.4
2018-05-15T11:43:46.964Z,1020.4
2018-05-15T11:44:48.708Z,1020.4
2018-05-15T11:45:50.456Z,1020.4
2018-05-15T11:46:52.197Z,1020.3
2018-05-15T11:47:54.455Z,1020.4
2018-05-15T11:48:56.272Z,1020.4
2018-05-15T11:49:57.691Z,1020.4
2018-05-15T11:50:59.838Z,1020.3
2018-05-15T11:52:01.862Z,1020.4
2018-05-15T11:53:03.413Z,1020.4
2018-05-15T11:54:04.537Z,1020.4
2018-05-15T11:55:06.326Z,1020.4
2018-05-15T11:56:08.090Z,1020.3
2018-05-15T11:57:09.855Z,1020.4
2018-05-15T11:58:11.698Z,1020.3
2018-05-15T11:59:13.387Z,1020.3
2018-05-15T12:00:15.326Z,1020.3
2018-05-15T12:01:16.916Z,1020.3
2018-05-15T12:02:18.702Z,1020.3
2018-05-15T12:03:20.448Z,1020.3
2018-05-15T12:04:22.262Z,1020.3
2018-05-15T12:05:24.011Z,1020.3
2018-05-15T12:06:25.855Z,1020.3
2018-05-15T12:07:27.592Z,1020.3
2018-05-15T12:08:29.368Z,1020.3
2018-05-15T12:09:31.117Z,1020.3
2018-05-15T12:10:32.922Z,1020.2
2018-05-15T12:11:34.648Z,1020.3
2018-05-15T12:12:36.462Z,1020.2
2018-05-15T12:13:38.219Z,1020.2
2018-05-15T12:14:39.972Z,1020.2
2018-05-15T12:15:41.718Z,1020.2
2018-05-15T12:16:43.509Z,1020.2
2018-05-15T12:17:45.263Z,1020.1
2018-05-15T12:18:47.054Z,1020.2
2018-05-15T12:19:48.834Z,1020.3
2018-05-15T12:20:50.590Z,1020.6
2018-05-15T12:21:52.328Z,1020.9
2018-05-15T12:22:54.085Z,1021.2
2018-05-15T12:23:55.882Z,1021.2
2018-05-15T12:24:57.644Z,1021.3
2018-05-15T12:25:59.970Z,1021.3
2018-05-15T12:27:01.746Z,1021.3
2018-05-15T12:28:03.620Z,1021.3
2018-05-15T12:29:05.335Z,1021.2
2018-05-15T12:30:07.079Z,1021.3
2018-05-15T12:31:08.869Z,1021.2
2018-05-15T12:32:10.709Z,1021.2
2018-05-15T12:33:12.462Z,1021.2
2018-05-15T12:34:14.230Z,1021.2
2018-05-15T12:35:15.989Z,1021.2
2018-05-15T12:36:17.873Z,1021.2
2018-05-15T12:37:19.647Z,1021.2
2018-05-15T12:38:21.407Z,1021.1
2018-05-15T12:39:23.156Z,1021.2
2018-05-15T12:40:24.916Z,1021.2
2018-05-15T12:41:26.768Z,1021.2
2018-05-15T12:42:28.447Z,1021.2
2018-05-15T12:43:30.217Z,1021.2
2018-05-15T12:44:31.972Z,1021.2
2018-05-15T12:45:33.744Z,1021.2
2018-05-15T12:46:35.521Z,1021.2
2018-05-15T12:47:37.285Z,1021.2
2018-05-15T12:48:39.049Z,1021.1
2018-05-15T12:49:40.809Z,1021.2
2018-05-15T12:50:42.579Z,1021.2
2018-05-15T12:51:44.347Z,1021.2
2018-05-15T12:52:46.112Z,1021.1